Arlington, CO

3:19 AM MDT on October 21, 2014 (GMT -0600)
NE Crowley County | Change Station
CLOSE
Current Station
Personal Weather Station
Location: Sugar City, CO
Elevation: 4590 ft
Nearby Weather Stations

Elev 4590 ft 38.45 °N, 103.52 °W | Updated 26 seconds ago

Clear
Clear
43.2 °F
Feels Like 43 °F
N
0.0
Wind Variable Wind from SE
Gusts 0.0 mph

Today
High -- | Low -- °F
--% Chance of Precip.
Yesterday
High -- | Low -- °F
Precip. -- in
7:08 AM 6:07 PM
Waning Crescent, 6% visible
Pressure 29.95 in
Visibility 10.0 miles
Clouds Clear
Windchill 43 °F
Dew Point 40 °F
Humidity 90%
Rainfall 0.00 in
Snow Depth Not available.
UV 0 out of 12
Pollen 1.80 out of 12
Air Quality Not available.
Flu Activity Sporadic
METAR KLHX 210853Z AUTO 09004KT 10SM CLR 09/08 A3007 RMK AO2 SLP141 T00940078 56008

More Conditions Fewer Conditions

Pressure 29.95 in
Visibility 10.0 miles
Clouds Clear
Windchill 43 °F
Dew Point 40 °F
Humidity 90%
Rainfall 0.00 in
Snow Depth Not available.
UV 0 out of 12
Pollen 1.80 out of 12
Air Quality Not available.
Flu Activity Sporadic
METAR KLHX 210853Z AUTO 09004KT 10SM CLR 09/08 A3007 RMK AO2 SLP141 T00940078 56008

More Conditions Fewer Conditions

10-Day Weather Forecast

Almanac

Astronomy

Oct. 21, 2014 Rise Set
Actual Time 7:08 AM MDT 6:07 PM MDT
Civil Twilight 6:41 AM MDT 6:33 PM MDT
Nautical Twilight 6:10 AM MDT 7:04 PM MDT
Astronomical Twilight 5:40 AM MDT 7:35 PM MDT
Moon 4:56 AM MDT 5:01 PM MDT
Length of Visible Light 11h 52m
Length of Day
10h 58m
Tomorrow will be 2m 20s shorter.
Waning Crescent, 6% of the Moon is Illuminated
Today
Waning Crescent
Oct 23
New
Oct 30
First Quarter
Nov 6
Full
Nov 14
Last Quarter

Today's Extremes

State Highs State Lows

Community

WunderPhotos

Upload Photos

1,763,619 photos uploaded!

Nearby

Snow Depth

Station Depth Elevation
Glen Cove 1 in 11460 ft
Apishapa 0 in 10000 ft
Medano Pass 1 in 9620 ft
South Colony 1 in 10800 ft
Ute Creek 0 in 10650 ft

Earthquake Activity

City Distance Mag. Time & Date
Trinidad, Colorado 124 miles 2.7 10:33 PM MDT
2014-10-20
Trinidad, Colorado 113 miles 2.5 10:01 PM MDT
2014-10-19
Minimum magnitude displayed is 2.5.

Coastal Water Temperatures

Place Temperature
No Stations Reporting

Nearby Weather Stations